createdAt,value
2019-04-30T00:02:17.709Z,90.78
2019-04-30T00:04:45.837Z,90.90
2019-04-30T00:07:15.561Z,91.00
2019-04-30T00:09:40.465Z,90.99
2019-04-30T00:12:06.722Z,90.99
2019-04-30T00:14:38.612Z,91.01
2019-04-30T00:17:01.898Z,91.09
2019-04-30T00:19:29.185Z,91.11
2019-04-30T00:22:00.174Z,91.09
2019-04-30T00:24:25.820Z,91.02
2019-04-30T00:26:52.499Z,91.16
2019-04-30T00:29:26.406Z,90.91
2019-04-30T00:31:47.212Z,90.82
2019-04-30T00:34:15.175Z,90.66
2019-04-30T00:36:41.846Z,90.41
2019-04-30T00:39:13.122Z,90.14
2019-04-30T00:41:39.957Z,90.10
2019-04-30T00:44:05.462Z,89.98
2019-04-30T00:46:31.895Z,89.99
2019-04-30T00:49:08.820Z,89.97
2019-04-30T00:51:27.269Z,90.13
2019-04-30T00:53:55.636Z,90.17
2019-04-30T00:56:24.776Z,90.10
2019-04-30T00:58:50.008Z,90.25
2019-04-30T01:01:18.270Z,90.29
2019-04-30T01:03:49.386Z,90.22
2019-04-30T01:06:18.769Z,90.12
2019-04-30T01:08:42.453Z,89.88
2019-04-30T01:11:09.584Z,89.64
2019-04-30T01:13:35.961Z,89.44
2019-04-30T01:16:02.076Z,89.30
2019-04-30T01:18:31.902Z,89.25
2019-04-30T01:20:56.387Z,89.24
2019-04-30T01:23:22.702Z,89.18
2019-04-30T01:25:51.272Z,89.07
2019-04-30T01:28:22.890Z,88.94
2019-04-30T01:30:45.384Z,88.80
2019-04-30T01:33:11.796Z,88.79
2019-04-30T01:35:38.208Z,88.80
2019-04-30T01:38:11.137Z,88.75
2019-04-30T01:40:35.401Z,88.68
2019-04-30T01:43:01.602Z,88.66
2019-04-30T01:45:31.477Z,88.53
2019-04-30T01:48:00.618Z,88.64
2019-04-30T01:50:23.884Z,87.94
2019-04-30T01:52:52.067Z,87.97
2019-04-30T01:55:20.450Z,87.54
2019-04-30T01:57:59.151Z,88.06
2019-04-30T02:00:29.255Z,88.04
2019-04-30T02:02:55.623Z,87.96
2019-04-30T02:05:21.727Z,88.14
2019-04-30T02:07:48.672Z,87.86
2019-04-30T02:10:15.876Z,87.85
2019-04-30T02:12:42.097Z,87.72
2019-04-30T02:15:09.580Z,87.56
2019-04-30T02:17:35.903Z,87.59
2019-04-30T02:20:05.078Z,87.75
2019-04-30T02:22:32.265Z,87.93
2019-04-30T02:24:58.646Z,88.09
2019-04-30T02:27:24.921Z,87.75
2019-04-30T02:29:52.217Z,87.75
2019-04-30T02:32:20.844Z,87.41
2019-04-30T02:34:51.464Z,87.54
2019-04-30T02:37:25.477Z,87.82
2019-04-30T02:39:51.792Z,87.75
2019-04-30T02:42:20.181Z,87.77
2019-04-30T02:44:47.130Z,87.79
2019-04-30T02:47:15.735Z,88.24
2019-04-30T02:49:42.546Z,88.32
2019-04-30T02:52:11.253Z,88.80
2019-04-30T02:54:40.797Z,88.93
2019-04-30T02:57:11.271Z,88.90
2019-04-30T02:59:40.264Z,88.85
2019-04-30T03:02:06.580Z,88.78
2019-04-30T03:04:32.684Z,88.45
2019-04-30T03:06:59.828Z,88.33
2019-04-30T03:09:26.196Z,88.37
2019-04-30T03:11:52.534Z,88.71
2019-04-30T03:14:20.177Z,88.67
2019-04-30T03:17:00.862Z,88.83
2019-04-30T03:19:29.555Z,89.07
2019-04-30T03:22:03.812Z,88.98
2019-04-30T03:24:30.073Z,88.50
2019-04-30T03:26:56.230Z,88.54
2019-04-30T03:29:24.044Z,88.82
2019-04-30T03:31:52.355Z,88.70
2019-04-30T03:34:25.235Z,88.66
2019-04-30T03:36:46.688Z,88.76
2019-04-30T03:39:12.844Z,88.78
2019-04-30T03:41:41.404Z,88.67
2019-04-30T03:44:20.946Z,88.90
2019-04-30T03:46:35.365Z,88.92
2019-04-30T03:49:01.537Z,88.72
2019-04-30T03:51:30.327Z,88.68
2019-04-30T03:53:55.895Z,88.83
2019-04-30T03:56:23.060Z,88.71
2019-04-30T03:58:50.309Z,88.82
2019-04-30T04:01:19.626Z,88.81
2019-04-30T04:04:05.808Z,88.64
2019-04-30T04:06:43.084Z,88.68
2019-04-30T04:09:11.086Z,88.47
2019-04-30T04:11:39.737Z,88.26
2019-04-30T04:14:05.842Z,88.36
2019-04-30T04:16:32.522Z,88.04
2019-04-30T04:18:59.863Z,88.13
2019-04-30T04:21:29.819Z,87.69
2019-04-30T04:23:54.894Z,87.43
2019-04-30T04:26:21.116Z,87.80
2019-04-30T04:28:49.669Z,87.88
2019-04-30T04:31:15.400Z,87.80
2019-04-30T04:33:41.638Z,87.77
2019-04-30T04:36:09.168Z,87.82
2019-04-30T04:38:35.696Z,87.80
2019-04-30T04:41:03.018Z,88.04
2019-04-30T04:43:30.103Z,88.03
2019-04-30T04:45:56.324Z,87.85
2019-04-30T04:48:23.153Z,87.78
2019-04-30T04:50:50.334Z,88.28
2019-04-30T04:53:19.317Z,88.53
2019-04-30T04:55:44.771Z,88.68
2019-04-30T04:58:12.929Z,88.71
2019-04-30T05:00:39.281Z,88.63
2019-04-30T05:03:10.353Z,88.73
2019-04-30T05:05:36.621Z,88.92
2019-04-30T05:08:02.824Z,88.88
2019-04-30T05:10:29.230Z,88.95
2019-04-30T05:12:55.521Z,88.86
2019-04-30T05:15:21.755Z,89.07
2019-04-30T05:17:49.458Z,89.11
2019-04-30T05:20:16.130Z,88.98
2019-04-30T05:22:42.224Z,89.21
2019-04-30T05:25:09.053Z,89.13
2019-04-30T05:27:35.252Z,89.09
2019-04-30T05:30:02.479Z,89.03
2019-04-30T05:32:29.341Z,89.05
2019-04-30T05:34:55.698Z,88.92
2019-04-30T05:37:22.549Z,88.63
2019-04-30T05:39:49.000Z,88.66
2019-04-30T05:42:15.590Z,88.58
2019-04-30T05:44:41.744Z,88.40
2019-04-30T05:47:09.312Z,87.94
2019-04-30T05:49:35.573Z,88.13
2019-04-30T05:52:01.761Z,88.05
2019-04-30T05:54:29.156Z,87.87
2019-04-30T05:56:55.661Z,88.00
2019-04-30T05:59:21.774Z,87.67
2019-04-30T06:01:50.702Z,87.61
2019-04-30T06:04:16.322Z,87.38
2019-04-30T06:06:42.557Z,87.58
2019-04-30T06:09:31.622Z,87.22
2019-04-30T06:11:59.119Z,87.03
2019-04-30T06:14:33.197Z,86.49
2019-04-30T06:17:04.392Z,86.36
2019-04-30T06:19:30.598Z,86.58
2019-04-30T06:22:05.794Z,87.04
2019-04-30T06:24:25.094Z,86.81
2019-04-30T06:26:51.421Z,86.83
2019-04-30T06:29:18.947Z,86.35
2019-04-30T06:31:45.315Z,86.41
2019-04-30T06:34:11.746Z,86.84
2019-04-30T06:36:50.666Z,86.98
2019-04-30T06:39:08.685Z,87.10
2019-04-30T06:41:35.116Z,86.77
2019-04-30T06:44:01.641Z,86.74
2019-04-30T06:46:28.612Z,86.00
2019-04-30T06:48:55.391Z,86.25
2019-04-30T06:51:21.556Z,86.34
2019-04-30T06:53:49.512Z,86.43
2019-04-30T06:56:15.977Z,86.42
2019-04-30T06:58:42.284Z,86.43
2019-04-30T07:01:09.606Z,86.54
2019-04-30T07:03:35.908Z,86.42
2019-04-30T07:06:02.099Z,86.13
2019-04-30T07:08:46.904Z,86.17
2019-04-30T07:11:24.417Z,86.40
2019-04-30T07:13:52.181Z,86.07
2019-04-30T07:16:19.078Z,85.92
2019-04-30T07:18:45.615Z,85.81
2019-04-30T07:21:11.930Z,85.88
2019-04-30T07:23:39.280Z,86.05
2019-04-30T07:26:05.606Z,86.11
2019-04-30T07:28:43.243Z,85.49
2019-04-30T07:31:08.714Z,85.47
2019-04-30T07:33:29.554Z,85.49
2019-04-30T07:35:56.004Z,85.55
2019-04-30T07:38:22.079Z,85.74
2019-04-30T07:40:49.295Z,85.71
2019-04-30T07:43:15.658Z,85.43
2019-04-30T07:45:41.832Z,85.85
2019-04-30T07:48:09.334Z,85.12
2019-04-30T07:50:36.105Z,85.07
2019-04-30T07:53:06.294Z,85.00
2019-04-30T07:55:30.934Z,84.26
2019-04-30T07:57:59.000Z,84.50
2019-04-30T08:00:25.244Z,84.08
2019-04-30T08:02:53.245Z,83.70
2019-04-30T08:05:21.374Z,83.13
2019-04-30T08:07:48.976Z,82.23
2019-04-30T08:10:15.472Z,82.58
2019-04-30T08:12:43.463Z,82.85
2019-04-30T08:15:10.013Z,82.63
2019-04-30T08:17:36.234Z,82.89
2019-04-30T08:20:04.981Z,82.23
2019-04-30T08:22:31.235Z,81.95
2019-04-30T08:24:58.702Z,81.82
2019-04-30T08:27:24.982Z,81.53
2019-04-30T08:29:51.137Z,81.46
2019-04-30T08:32:19.066Z,81.46
2019-04-30T08:34:45.346Z,81.79
2019-04-30T08:37:17.040Z,81.30
2019-04-30T08:39:39.846Z,80.92
2019-04-30T08:42:06.102Z,80.68
2019-04-30T08:44:32.261Z,80.65
2019-04-30T08:46:59.055Z,80.91
2019-04-30T08:49:25.766Z,80.94
2019-04-30T08:51:52.124Z,80.91
2019-04-30T08:54:19.714Z,81.41
2019-04-30T08:56:46.534Z,79.87
2019-04-30T08:59:12.762Z,80.16
2019-04-30T09:01:38.977Z,79.58
2019-04-30T09:04:07.458Z,79.66
2019-04-30T09:06:33.311Z,79.16
2019-04-30T09:09:00.177Z,79.10
2019-04-30T09:11:35.536Z,78.93
2019-04-30T09:13:58.410Z,79.17
2019-04-30T09:16:24.569Z,78.64
2019-04-30T09:18:52.664Z,78.03
2019-04-30T09:21:18.831Z,78.64
2019-04-30T09:23:51.910Z,78.96
2019-04-30T09:26:13.121Z,79.35
2019-04-30T09:28:41.028Z,78.32
2019-04-30T09:31:08.743Z,78.34
2019-04-30T09:33:34.930Z,77.76
2019-04-30T09:36:01.165Z,77.06
2019-04-30T09:38:29.034Z,77.16
2019-04-30T09:40:55.388Z,77.45
2019-04-30T09:43:21.524Z,77.52
2019-04-30T09:45:49.577Z,77.01
2019-04-30T09:48:15.890Z,76.89
2019-04-30T09:50:42.096Z,75.73
2019-04-30T09:53:10.062Z,74.90
2019-04-30T09:55:36.802Z,74.86
2019-04-30T09:58:14.282Z,73.48
2019-04-30T10:00:33.173Z,73.45
2019-04-30T10:03:00.179Z,72.94
2019-04-30T10:05:28.739Z,73.36
2019-04-30T10:07:55.004Z,72.72
2019-04-30T10:10:24.305Z,72.71
2019-04-30T10:12:50.629Z,71.93
2019-04-30T10:15:28.939Z,71.35
2019-04-30T10:17:55.491Z,71.04
2019-04-30T10:20:25.551Z,70.40
2019-04-30T10:22:51.869Z,68.51
2019-04-30T10:25:18.086Z,69.01
2019-04-30T10:27:44.519Z,68.51
2019-04-30T10:30:11.379Z,67.44
2019-04-30T10:32:37.597Z,66.17
2019-04-30T10:35:05.555Z,64.77
2019-04-30T10:37:31.854Z,62.35
2019-04-30T10:39:59.757Z,60.23
2019-04-30T10:42:28.736Z,60.42
2019-04-30T10:44:55.111Z,59.62
2019-04-30T10:47:21.461Z,59.49
2019-04-30T10:49:48.686Z,57.90
2019-04-30T10:52:15.116Z,56.29
2019-04-30T10:54:41.548Z,54.03
2019-04-30T10:57:08.715Z,52.40
2019-04-30T10:59:35.159Z,50.01
2019-04-30T11:02:01.569Z,50.68
2019-04-30T11:04:27.980Z,46.62
2019-04-30T11:06:54.189Z,44.61
2019-04-30T11:09:20.753Z,44.38
2019-04-30T11:11:47.115Z,42.34
2019-04-30T11:14:13.462Z,41.99
2019-04-30T11:16:40.125Z,40.14
2019-04-30T11:19:06.674Z,41.12
2019-04-30T11:21:33.294Z,40.46
2019-04-30T11:23:59.867Z,40.33
2019-04-30T11:26:26.690Z,41.83
2019-04-30T11:28:54.541Z,42.33
2019-04-30T11:31:26.123Z,43.14
2019-04-30T11:33:56.303Z,41.86
2019-04-30T11:36:23.821Z,39.79
2019-04-30T11:38:50.043Z,37.23
2019-04-30T11:41:29.277Z,36.10
2019-04-30T11:43:44.391Z,34.54
2019-04-30T11:46:23.681Z,34.85
2019-04-30T11:48:49.986Z,33.51
2019-04-30T11:51:16.131Z,33.06
2019-04-30T11:53:42.395Z,31.48
2019-04-30T11:56:08.783Z,31.73
2019-04-30T11:58:34.977Z,31.38
2019-04-30T12:01:01.451Z,30.67
2019-04-30T12:03:30.100Z,30.38
2019-04-30T12:05:55.793Z,28.80
2019-04-30T12:08:26.398Z,28.81
2019-04-30T12:10:56.782Z,28.33
2019-04-30T12:13:26.762Z,28.68
2019-04-30T12:15:53.203Z,27.75
2019-04-30T12:18:19.344Z,28.63
2019-04-30T12:20:45.679Z,27.01
2019-04-30T12:23:12.000Z,26.35
2019-04-30T12:25:38.761Z,25.46
2019-04-30T12:28:06.416Z,25.87
2019-04-30T12:30:32.687Z,25.81
2019-04-30T12:32:59.899Z,25.70
2019-04-30T12:35:26.185Z,26.82
2019-04-30T12:37:52.596Z,26.67
2019-04-30T12:40:29.087Z,26.86
2019-04-30T12:42:48.682Z,26.79
2019-04-30T12:45:15.293Z,26.26
2019-04-30T12:47:43.492Z,24.48
2019-04-30T12:50:12.007Z,24.59
2019-04-30T12:52:42.864Z,24.79
2019-04-30T12:55:15.681Z,24.68
2019-04-30T12:57:41.377Z,24.16
2019-04-30T13:00:10.434Z,23.39
2019-04-30T13:02:36.799Z,23.59
2019-04-30T13:05:05.333Z,23.63
2019-04-30T13:07:31.991Z,23.80
2019-04-30T13:10:01.216Z,22.73
2019-04-30T13:12:27.681Z,22.52
2019-04-30T13:14:54.795Z,23.11
2019-04-30T13:17:21.270Z,23.45
2019-04-30T13:19:47.395Z,22.72
2019-04-30T13:22:13.728Z,23.29
2019-04-30T13:24:40.171Z,22.69
2019-04-30T13:27:06.691Z,22.59
2019-04-30T13:29:34.864Z,23.24
2019-04-30T13:32:01.125Z,22.65
2019-04-30T13:34:44.245Z,22.31
2019-04-30T13:37:10.595Z,21.94
2019-04-30T13:39:50.125Z,22.13
2019-04-30T13:42:18.004Z,21.68
2019-04-30T13:44:42.878Z,22.08
2019-04-30T13:47:10.920Z,22.28
2019-04-30T13:49:39.390Z,22.25
2019-04-30T13:52:05.758Z,19.83
2019-04-30T13:54:31.879Z,20.87
2019-04-30T13:56:59.134Z,21.33
2019-04-30T13:59:25.422Z,21.84
2019-04-30T14:01:51.859Z,22.45
2019-04-30T14:04:26.945Z,21.39
2019-04-30T14:07:11.614Z,20.92
2019-04-30T14:09:38.036Z,20.25
2019-04-30T14:12:04.386Z,20.14
2019-04-30T14:14:30.697Z,20.87
2019-04-30T14:16:58.683Z,20.16
2019-04-30T14:19:25.119Z,20.20
2019-04-30T14:21:51.382Z,20.43
2019-04-30T14:24:19.289Z,20.96
2019-04-30T14:26:45.422Z,21.24
2019-04-30T14:29:12.852Z,21.47
2019-04-30T14:31:38.953Z,20.79
2019-04-30T14:34:05.378Z,20.42
2019-04-30T14:36:31.586Z,20.28
2019-04-30T14:39:12.977Z,20.86
2019-04-30T14:41:26.718Z,20.17
2019-04-30T14:43:55.727Z,20.19
2019-04-30T14:46:36.731Z,20.20
2019-04-30T14:49:15.186Z,20.21
2019-04-30T14:51:39.896Z,19.74
2019-04-30T14:54:13.666Z,20.61
2019-04-30T14:56:57.131Z,20.27
2019-04-30T14:59:28.930Z,19.61
2019-04-30T15:01:59.162Z,20.03
2019-04-30T15:04:25.257Z,19.67
2019-04-30T15:06:51.381Z,20.61
2019-04-30T15:09:17.705Z,19.88
2019-04-30T15:11:43.967Z,20.19
2019-04-30T15:14:10.283Z,21.28
2019-04-30T15:16:36.542Z,22.53
2019-04-30T15:19:02.856Z,23.30
2019-04-30T15:21:29.033Z,24.02
2019-04-30T15:24:03.318Z,24.40
2019-04-30T15:26:29.636Z,24.55
2019-04-30T15:28:57.983Z,24.61
2019-04-30T15:31:25.655Z,25.01
2019-04-30T15:34:02.971Z,24.99
2019-04-30T15:36:25.065Z,25.99
2019-04-30T15:39:05.623Z,26.78
2019-04-30T15:41:32.766Z,27.89
2019-04-30T15:43:58.967Z,28.74
2019-04-30T15:46:25.503Z,29.43
2019-04-30T15:48:51.706Z,30.38
2019-04-30T15:51:18.067Z,30.47
2019-04-30T15:53:44.283Z,30.21
2019-04-30T15:56:10.818Z,30.93
2019-04-30T15:58:38.949Z,30.96
2019-04-30T16:01:09.016Z,31.37
2019-04-30T16:03:37.293Z,31.79
2019-04-30T16:06:03.648Z,32.78
2019-04-30T16:08:31.694Z,33.12
2019-04-30T16:11:10.472Z,33.74
2019-04-30T16:13:49.536Z,33.67
2019-04-30T16:16:19.085Z,34.08
2019-04-30T16:18:49.336Z,35.03
2019-04-30T16:21:15.877Z,34.67
2019-04-30T16:23:42.056Z,35.17
2019-04-30T16:26:08.256Z,35.52
2019-04-30T16:28:35.603Z,35.70
2019-04-30T16:31:01.869Z,35.79
2019-04-30T16:33:29.436Z,35.66
2019-04-30T16:35:55.837Z,35.61
2019-04-30T16:38:21.948Z,36.55
2019-04-30T16:40:48.939Z,37.02
2019-04-30T16:43:15.495Z,37.37
2019-04-30T16:45:41.907Z,36.97
2019-04-30T16:48:09.831Z,37.00
2019-04-30T16:50:36.103Z,37.03
2019-04-30T16:53:02.280Z,37.63
2019-04-30T16:55:28.557Z,37.90
2019-04-30T16:57:54.880Z,37.21
2019-04-30T17:00:21.890Z,37.36
2019-04-30T17:02:52.933Z,36.83
2019-04-30T17:05:21.021Z,37.23
2019-04-30T17:08:01.869Z,36.91
2019-04-30T17:10:32.970Z,37.16
2019-04-30T17:13:01.020Z,37.53
2019-04-30T17:15:29.280Z,38.05
2019-04-30T17:17:55.600Z,38.49
2019-04-30T17:20:21.788Z,38.75
2019-04-30T17:22:49.673Z,39.10
2019-04-30T17:25:16.274Z,38.94
2019-04-30T17:27:42.633Z,39.31
2019-04-30T17:30:10.989Z,39.52
2019-04-30T17:32:39.343Z,40.02
2019-04-30T17:35:06.140Z,40.53
2019-04-30T17:37:32.249Z,41.38
2019-04-30T17:39:59.062Z,41.88
2019-04-30T17:42:25.326Z,43.18
2019-04-30T17:44:58.459Z,43.15
2019-04-30T17:47:19.847Z,44.01
2019-04-30T17:49:46.064Z,44.90
2019-04-30T17:52:12.319Z,45.82
2019-04-30T17:54:38.588Z,45.74
2019-04-30T17:57:05.022Z,47.06
2019-04-30T17:59:31.143Z,47.57
2019-04-30T18:01:59.663Z,48.64
2019-04-30T18:04:26.063Z,48.86
2019-04-30T18:06:52.261Z,50.12
2019-04-30T18:09:19.498Z,50.45
2019-04-30T18:11:45.806Z,51.96
2019-04-30T18:14:12.345Z,53.43
2019-04-30T18:16:38.833Z,52.71
2019-04-30T18:19:23.568Z,53.12
2019-04-30T18:21:51.758Z,54.08
2019-04-30T18:24:25.872Z,53.18
2019-04-30T18:27:02.670Z,52.40
2019-04-30T18:29:28.825Z,51.79
2019-04-30T18:31:54.965Z,52.29
2019-04-30T18:34:21.163Z,53.62
2019-04-30T18:36:48.650Z,53.95
2019-04-30T18:39:15.694Z,52.28
2019-04-30T18:41:42.090Z,52.15
2019-04-30T18:44:09.507Z,51.95
2019-04-30T18:46:35.751Z,50.81
2019-04-30T18:49:02.168Z,51.24
2019-04-30T18:51:38.319Z,52.29
2019-04-30T18:53:57.637Z,52.12
2019-04-30T18:56:23.853Z,53.16
2019-04-30T18:58:50.116Z,54.45
2019-04-30T19:01:17.501Z,55.07
2019-04-30T19:03:43.853Z,55.54
2019-04-30T19:06:22.477Z,55.62
2019-04-30T19:08:41.983Z,56.37
2019-04-30T19:11:10.147Z,56.77
2019-04-30T19:13:38.194Z,55.24
2019-04-30T19:16:24.702Z,53.49
2019-04-30T19:18:48.557Z,53.90
2019-04-30T19:21:14.708Z,52.43
2019-04-30T19:23:40.954Z,52.63
2019-04-30T19:26:07.192Z,52.33
2019-04-30T19:28:33.604Z,52.49
2019-04-30T19:31:01.013Z,53.45
2019-04-30T19:33:29.388Z,53.09
2019-04-30T19:35:55.527Z,52.74
2019-04-30T19:38:21.716Z,52.37
2019-04-30T19:40:49.399Z,52.02
2019-04-30T19:43:15.844Z,52.09
2019-04-30T19:45:42.124Z,52.15
2019-04-30T19:48:09.037Z,51.92
2019-04-30T19:50:35.233Z,52.38
2019-04-30T19:53:01.484Z,52.91
2019-04-30T19:55:28.573Z,53.27
2019-04-30T19:57:54.992Z,53.71
2019-04-30T20:00:21.332Z,53.36
2019-04-30T20:02:48.673Z,53.46
2019-04-30T20:05:14.849Z,53.84
2019-04-30T20:07:41.041Z,53.57
2019-04-30T20:10:09.011Z,54.36
2019-04-30T20:12:35.303Z,54.59
2019-04-30T20:15:01.852Z,55.25
2019-04-30T20:17:29.527Z,55.55
2019-04-30T20:19:55.869Z,55.19
2019-04-30T20:22:22.512Z,55.75
2019-04-30T20:24:49.252Z,56.85
2019-04-30T20:27:15.607Z,57.75
2019-04-30T20:29:42.888Z,58.16
2019-04-30T20:32:09.027Z,58.83
2019-04-30T20:34:35.183Z,59.04
2019-04-30T20:37:01.339Z,59.12
2019-04-30T20:39:29.462Z,59.81
2019-04-30T20:41:55.601Z,60.37
2019-04-30T20:44:21.853Z,60.45
2019-04-30T20:46:49.142Z,61.41
2019-04-30T20:49:15.387Z,61.94
2019-04-30T20:51:52.766Z,62.21
2019-04-30T20:54:09.703Z,62.42
2019-04-30T20:56:35.973Z,62.50
2019-04-30T20:59:06.300Z,63.13
2019-04-30T21:01:30.552Z,63.28
2019-04-30T21:03:56.634Z,63.46
2019-04-30T21:06:22.962Z,63.26
2019-04-30T21:08:49.060Z,62.86
2019-04-30T21:11:15.289Z,62.35
2019-04-30T21:13:41.392Z,62.26
2019-04-30T21:16:07.626Z,62.21
2019-04-30T21:18:33.732Z,62.25
2019-04-30T21:21:00.065Z,62.59
2019-04-30T21:23:26.189Z,62.88
2019-04-30T21:25:52.330Z,62.93
2019-04-30T21:28:19.693Z,63.15
2019-04-30T21:30:47.445Z,62.82
2019-04-30T21:33:21.827Z,62.69
2019-04-30T21:35:50.769Z,62.16
2019-04-30T21:38:19.273Z,62.08
2019-04-30T21:40:45.149Z,62.35
2019-04-30T21:43:11.332Z,62.39
2019-04-30T21:45:39.703Z,62.41
2019-04-30T21:48:05.752Z,62.72
2019-04-30T21:50:32.095Z,62.54
2019-04-30T21:52:59.762Z,62.61
2019-04-30T21:55:26.112Z,62.19
2019-04-30T21:57:52.211Z,62.38
2019-04-30T22:00:36.191Z,62.25
2019-04-30T22:03:05.789Z,62.47
2019-04-30T22:05:32.139Z,62.45
2019-04-30T22:07:59.193Z,62.46
2019-04-30T22:10:25.571Z,62.63
2019-04-30T22:12:51.763Z,62.62
2019-04-30T22:15:17.967Z,63.47
2019-04-30T22:17:44.138Z,63.46
2019-04-30T22:20:10.711Z,63.31
2019-04-30T22:22:36.855Z,63.48
2019-04-30T22:25:05.274Z,63.52
2019-04-30T22:27:31.378Z,63.44
2019-04-30T22:29:57.614Z,62.87
2019-04-30T22:32:23.810Z,63.33
2019-04-30T22:34:49.983Z,63.26
2019-04-30T22:37:16.341Z,63.37
2019-04-30T22:39:44.489Z,63.27
2019-04-30T22:42:29.925Z,63.27
2019-04-30T22:44:58.128Z,63.33
2019-04-30T22:47:24.438Z,63.37
2019-04-30T22:49:50.527Z,63.14
2019-04-30T22:52:16.736Z,63.18
2019-04-30T22:54:42.850Z,63.82
2019-04-30T22:57:09.075Z,63.79
2019-04-30T22:59:35.188Z,63.71
2019-04-30T23:02:03.389Z,64.00
2019-04-30T23:04:40.400Z,63.81
2019-04-30T23:07:06.812Z,63.83
2019-04-30T23:09:33.092Z,63.94
2019-04-30T23:11:59.412Z,64.09
2019-04-30T23:14:25.614Z,64.08
2019-04-30T23:16:51.936Z,64.22
2019-04-30T23:19:18.217Z,64.37
2019-04-30T23:21:44.476Z,64.10
2019-04-30T23:24:10.719Z,64.01
2019-04-30T23:26:36.832Z,63.86
2019-04-30T23:29:03.142Z,63.88
2019-04-30T23:31:29.322Z,63.78
2019-04-30T23:33:55.490Z,63.84
2019-04-30T23:36:21.690Z,63.73
2019-04-30T23:38:47.896Z,63.94
2019-04-30T23:41:14.091Z,64.30
2019-04-30T23:43:40.285Z,64.49
2019-04-30T23:46:06.388Z,64.54
2019-04-30T23:48:32.610Z,65.14
2019-04-30T23:50:58.880Z,65.21
2019-04-30T23:53:25.142Z,65.14
2019-04-30T23:55:51.388Z,65.22
2019-04-30T23:58:17.588Z,65.61
